createdAt,value
2022-08-20T00:00:10.638Z,8.40
2022-08-20T00:00:41.210Z,8.50
2022-08-20T00:01:11.769Z,8.00
2022-08-20T00:01:42.387Z,9.30
2022-08-20T00:02:13.036Z,8.70
2022-08-20T00:02:43.607Z,8.70
2022-08-20T00:03:14.184Z,9.20
2022-08-20T00:03:50.194Z,8.60
2022-08-20T00:04:15.534Z,8.80
2022-08-20T00:04:46.109Z,8.80
2022-08-20T00:05:16.689Z,8.40
2022-08-20T00:05:47.298Z,8.70
2022-08-20T00:06:17.863Z,9.30
2022-08-20T00:06:48.421Z,9.20
2022-08-20T00:07:18.993Z,8.80
2022-08-20T00:07:49.598Z,9.50
2022-08-20T00:08:20.155Z,8.60
2022-08-20T00:08:50.753Z,9.10
2022-08-20T00:09:21.318Z,7.90
2022-08-20T00:09:51.898Z,8.80
2022-08-20T00:10:22.468Z,8.90
2022-08-20T00:10:55.589Z,8.60
2022-08-20T00:11:24.068Z,9.10
2022-08-20T00:11:54.604Z,8.40
2022-08-20T00:12:25.175Z,8.80
2022-08-20T00:12:55.739Z,8.70
2022-08-20T00:13:26.308Z,8.40
2022-08-20T00:13:56.894Z,8.60
2022-08-20T00:14:27.429Z,8.20
2022-08-20T00:14:58.224Z,9.20
2022-08-20T00:15:28.796Z,8.80
2022-08-20T00:15:59.369Z,9.10
2022-08-20T00:16:29.968Z,9.60
2022-08-20T00:17:00.529Z,9.00
2022-08-20T00:17:31.115Z,8.40
2022-08-20T00:18:01.659Z,8.80
2022-08-20T00:18:32.224Z,9.00
2022-08-20T00:19:02.824Z,8.70
2022-08-20T00:19:33.399Z,8.80
2022-08-20T00:20:03.955Z,8.50
2022-08-20T00:20:34.520Z,8.50
2022-08-20T00:21:05.067Z,9.10
2022-08-20T00:21:35.630Z,8.60
2022-08-20T00:22:06.237Z,8.30
2022-08-20T00:23:10.302Z,8.70
2022-08-20T00:23:38.612Z,8.80
2022-08-20T00:24:09.188Z,8.20
2022-08-20T00:24:39.756Z,8.60
2022-08-20T00:25:10.330Z,8.70
2022-08-20T00:25:40.902Z,8.80
2022-08-20T00:26:11.428Z,8.90
2022-08-20T00:26:52.364Z,8.20
2022-08-20T00:27:12.729Z,8.50
2022-08-20T00:27:43.295Z,8.80
2022-08-20T00:28:13.868Z,8.40
2022-08-20T00:28:44.459Z,8.70
2022-08-20T00:29:15.029Z,8.50
2022-08-20T00:29:45.754Z,8.50
2022-08-20T00:30:16.327Z,8.00
2022-08-20T00:30:46.920Z,8.20
2022-08-20T00:31:17.498Z,8.70
2022-08-20T00:31:48.044Z,8.70
2022-08-20T00:32:18.613Z,8.40
2022-08-20T00:32:49.150Z,8.40
2022-08-20T00:33:19.760Z,9.10
2022-08-20T00:33:50.345Z,8.80
2022-08-20T00:34:20.911Z,8.90
2022-08-20T00:34:51.500Z,8.80
2022-08-20T00:35:22.074Z,8.10
2022-08-20T00:35:52.652Z,9.10
2022-08-20T00:36:32.562Z,8.20
2022-08-20T00:36:54.014Z,9.00
2022-08-20T00:37:24.579Z,8.40
2022-08-20T00:37:58.684Z,8.60
2022-08-20T00:38:25.923Z,8.00
2022-08-20T00:38:56.478Z,8.70
2022-08-20T00:39:27.047Z,8.10
2022-08-20T00:39:57.672Z,7.70
2022-08-20T00:40:28.236Z,8.50
2022-08-20T00:40:58.813Z,8.10
2022-08-20T00:41:29.382Z,8.50
2022-08-20T00:41:59.962Z,8.50
2022-08-20T00:42:30.497Z,7.60
2022-08-20T00:43:01.064Z,8.40
2022-08-20T00:43:31.592Z,8.60
2022-08-20T00:44:02.166Z,8.50
2022-08-20T00:44:33.045Z,8.60
2022-08-20T00:45:03.608Z,7.70
2022-08-20T00:45:34.184Z,8.70
2022-08-20T00:46:04.711Z,8.70
2022-08-20T00:46:35.282Z,8.70
2022-08-20T00:47:05.833Z,8.30
2022-08-20T00:47:36.404Z,8.50
2022-08-20T00:48:06.984Z,8.90
2022-08-20T00:48:37.558Z,8.60
2022-08-20T00:49:08.138Z,8.50
2022-08-20T00:49:38.710Z,8.90
2022-08-20T00:50:09.243Z,8.50
2022-08-20T00:50:39.811Z,8.00
2022-08-20T00:51:10.396Z,8.90
2022-08-20T00:51:40.953Z,8.30
2022-08-20T00:52:11.527Z,8.70
2022-08-20T00:52:42.069Z,8.20
2022-08-20T00:53:12.843Z,8.20
2022-08-20T00:53:43.410Z,8.60
2022-08-20T00:54:13.988Z,8.40
2022-08-20T00:54:44.522Z,8.50
2022-08-20T00:55:15.103Z,8.20
2022-08-20T00:55:45.662Z,8.60
2022-08-20T00:56:16.243Z,9.00
2022-08-20T00:56:46.821Z,8.30
2022-08-20T00:57:17.383Z,8.00
2022-08-20T00:58:00.439Z,9.10
2022-08-20T00:58:18.708Z,8.90
2022-08-20T00:58:49.282Z,7.90
2022-08-20T00:59:19.808Z,8.60
2022-08-20T00:59:50.374Z,8.90
2022-08-20T01:00:20.933Z,8.20
2022-08-20T01:00:51.889Z,8.20
2022-08-20T01:01:22.479Z,8.50
2022-08-20T01:01:56.185Z,8.90
2022-08-20T01:02:23.832Z,8.60
2022-08-20T01:02:54.413Z,8.20
2022-08-20T01:03:24.976Z,8.30
2022-08-20T01:03:55.540Z,8.10
2022-08-20T01:04:26.091Z,8.70
2022-08-20T01:04:56.624Z,8.80
2022-08-20T01:05:29.426Z,8.10
2022-08-20T01:05:58.182Z,8.80
2022-08-20T01:06:28.749Z,8.30
2022-08-20T01:06:59.298Z,8.50
2022-08-20T01:07:29.874Z,7.80
2022-08-20T01:08:00.449Z,8.90
2022-08-20T01:08:31.014Z,8.50
2022-08-20T01:09:01.565Z,8.40
2022-08-20T01:09:49.820Z,8.40
2022-08-20T01:10:02.910Z,8.40
2022-08-20T01:10:33.484Z,8.40
2022-08-20T01:11:04.028Z,9.00
2022-08-20T01:11:36.982Z,7.80
2022-08-20T01:12:05.411Z,8.40
2022-08-20T01:12:35.958Z,8.60
2022-08-20T01:13:06.522Z,7.80
2022-08-20T01:13:37.098Z,8.30
2022-08-20T01:14:07.642Z,9.40
2022-08-20T01:14:38.176Z,8.70
2022-08-20T01:15:08.707Z,7.80
2022-08-20T01:15:43.010Z,8.40
2022-08-20T01:16:09.891Z,8.60
2022-08-20T01:16:40.672Z,8.00
2022-08-20T01:17:12.803Z,8.60
2022-08-20T01:17:42.315Z,8.20
2022-08-20T01:18:12.862Z,8.60
2022-08-20T01:18:43.400Z,8.20
2022-08-20T01:19:30.077Z,8.80
2022-08-20T01:19:44.743Z,8.30
2022-08-20T01:20:15.297Z,8.30
2022-08-20T01:20:45.867Z,8.30
2022-08-20T01:21:16.445Z,8.30
2022-08-20T01:21:49.757Z,8.20
2022-08-20T01:22:17.752Z,7.90
2022-08-20T01:22:48.314Z,8.00
2022-08-20T01:23:18.891Z,8.70
2022-08-20T01:23:49.456Z,7.50
2022-08-20T01:24:19.979Z,7.70
2022-08-20T01:24:50.527Z,8.60
2022-08-20T01:25:21.067Z,7.90
2022-08-20T01:25:51.784Z,8.20
2022-08-20T01:26:22.358Z,7.70
2022-08-20T01:26:52.918Z,8.40
2022-08-20T01:27:23.466Z,7.90
2022-08-20T01:27:55.478Z,8.00
2022-08-20T01:28:25.334Z,7.60
2022-08-20T01:28:55.920Z,7.60
2022-08-20T01:29:26.512Z,8.40
2022-08-20T01:29:57.077Z,8.70
2022-08-20T01:30:27.600Z,7.90
2022-08-20T01:30:58.171Z,8.20
2022-08-20T01:31:28.747Z,7.90
2022-08-20T01:31:59.348Z,8.50
2022-08-20T01:32:29.896Z,8.20
2022-08-20T01:33:00.474Z,8.30
2022-08-20T01:33:31.035Z,7.40
2022-08-20T01:34:01.620Z,8.00
2022-08-20T01:34:32.200Z,7.50
2022-08-20T01:35:02.753Z,7.80
2022-08-20T01:35:33.412Z,7.70
2022-08-20T01:36:03.939Z,7.50
2022-08-20T01:36:34.525Z,8.00
2022-08-20T01:37:05.093Z,8.00
2022-08-20T01:37:35.695Z,8.20
2022-08-20T01:38:06.277Z,7.60
2022-08-20T01:38:36.828Z,7.90
2022-08-20T01:39:07.398Z,7.80
2022-08-20T01:39:37.996Z,8.00
2022-08-20T01:40:09.344Z,7.40
2022-08-20T01:40:39.445Z,7.20
2022-08-20T01:41:09.993Z,8.10
2022-08-20T01:41:40.563Z,8.50
2022-08-20T01:42:11.109Z,7.70
2022-08-20T01:42:52.806Z,7.80
2022-08-20T01:43:12.458Z,7.70
2022-08-20T01:43:43.420Z,7.80
2022-08-20T01:44:16.990Z,8.00
2022-08-20T01:44:45.021Z,7.60
2022-08-20T01:45:15.842Z,8.00
2022-08-20T01:45:46.534Z,7.70
2022-08-20T01:46:17.185Z,6.90
2022-08-20T01:46:48.217Z,7.70
2022-08-20T01:47:19.149Z,7.80
2022-08-20T01:47:49.825Z,7.70
2022-08-20T01:48:20.780Z,7.60
2022-08-20T01:48:51.327Z,7.60
2022-08-20T01:49:23.210Z,7.70
2022-08-20T01:49:52.536Z,7.90
2022-08-20T01:50:23.093Z,7.80
2022-08-20T01:50:53.643Z,7.70
2022-08-20T01:51:24.229Z,7.40
2022-08-20T01:51:54.805Z,7.70
2022-08-20T01:52:25.325Z,7.40
2022-08-20T01:52:55.896Z,8.00
2022-08-20T01:53:26.486Z,7.80
2022-08-20T01:53:57.041Z,8.10
2022-08-20T01:54:27.623Z,7.70
2022-08-20T01:54:58.179Z,7.00
2022-08-20T01:55:28.699Z,7.40
2022-08-20T01:55:59.255Z,7.40
2022-08-20T01:56:29.834Z,7.80
2022-08-20T01:57:00.388Z,7.20
2022-08-20T01:57:30.982Z,7.60
2022-08-20T01:58:01.566Z,7.60
2022-08-20T01:58:32.135Z,7.70
2022-08-20T01:59:02.697Z,7.40
2022-08-20T01:59:33.275Z,7.80
2022-08-20T02:00:03.856Z,7.80
2022-08-20T02:00:34.398Z,7.50
2022-08-20T02:01:04.946Z,7.50
2022-08-20T02:01:46.484Z,7.40
2022-08-20T02:02:06.261Z,7.60
2022-08-20T02:02:36.824Z,7.30
2022-08-20T02:03:07.356Z,7.90
2022-08-20T02:03:41.825Z,7.50
2022-08-20T02:04:08.719Z,8.00
2022-08-20T02:04:39.505Z,8.00
2022-08-20T02:05:10.087Z,7.30
2022-08-20T02:05:40.670Z,8.10
2022-08-20T02:06:11.227Z,7.20
2022-08-20T02:06:41.771Z,7.70
2022-08-20T02:07:12.555Z,8.10
2022-08-20T02:07:43.130Z,8.00
2022-08-20T02:08:13.683Z,7.80
2022-08-20T02:08:44.271Z,7.60
2022-08-20T02:09:16.265Z,7.80
2022-08-20T02:09:45.802Z,8.40
2022-08-20T02:10:16.371Z,7.80
2022-08-20T02:10:46.934Z,7.70
2022-08-20T02:11:17.489Z,8.50
2022-08-20T02:11:48.048Z,7.20
2022-08-20T02:12:18.633Z,7.80
2022-08-20T02:12:49.184Z,8.10
2022-08-20T02:13:19.707Z,7.90
2022-08-20T02:13:50.261Z,7.70
2022-08-20T02:14:20.839Z,7.70
2022-08-20T02:14:51.413Z,7.90
2022-08-20T02:15:34.669Z,7.50
2022-08-20T02:15:52.721Z,7.90
2022-08-20T02:16:23.277Z,7.80
2022-08-20T02:16:54.953Z,7.90
2022-08-20T02:17:24.618Z,8.00
2022-08-20T02:17:55.409Z,7.60
2022-08-20T02:18:26.027Z,7.40
2022-08-20T02:18:56.593Z,7.90
2022-08-20T02:19:27.125Z,8.40
2022-08-20T02:19:57.694Z,8.30
2022-08-20T02:20:28.244Z,8.20
2022-08-20T02:20:58.765Z,8.40
2022-08-20T02:21:29.347Z,8.00
2022-08-20T02:21:59.972Z,7.60
2022-08-20T02:22:30.507Z,7.90
2022-08-20T02:23:01.077Z,7.70
2022-08-20T02:23:31.620Z,8.70
2022-08-20T02:24:02.179Z,8.10
2022-08-20T02:24:32.771Z,8.00
2022-08-20T02:25:03.312Z,8.00
2022-08-20T02:25:33.869Z,7.90
2022-08-20T02:26:04.416Z,7.60
2022-08-20T02:26:34.991Z,8.10
2022-08-20T02:27:05.522Z,8.40
2022-08-20T02:27:36.082Z,7.70
2022-08-20T02:28:06.650Z,8.40
2022-08-20T02:28:37.235Z,8.40
2022-08-20T02:29:07.824Z,7.70
2022-08-20T02:29:38.366Z,8.00
2022-08-20T02:30:08.931Z,7.70
2022-08-20T02:30:39.475Z,8.20
2022-08-20T02:31:10.019Z,7.60
2022-08-20T02:32:23.444Z,8.20
2022-08-20T02:32:24.773Z,8.40
2022-08-20T02:32:42.183Z,7.70
2022-08-20T02:33:12.747Z,8.40
2022-08-20T02:33:43.314Z,7.80
2022-08-20T02:34:21.633Z,7.90
2022-08-20T02:34:44.866Z,7.60
2022-08-20T02:35:15.438Z,7.90
2022-08-20T02:35:46.009Z,7.90
2022-08-20T02:36:16.591Z,7.20
2022-08-20T02:36:47.137Z,7.90
2022-08-20T02:37:17.687Z,8.50
2022-08-20T02:37:48.268Z,7.90
2022-08-20T02:38:18.855Z,7.50
2022-08-20T02:38:49.379Z,8.30
2022-08-20T02:39:19.931Z,8.40
2022-08-20T02:39:50.517Z,7.80
2022-08-20T02:40:27.464Z,8.00
2022-08-20T02:40:51.868Z,7.80
2022-08-20T02:41:22.443Z,8.20
2022-08-20T02:41:53.010Z,7.90
2022-08-20T02:42:23.532Z,7.70
2022-08-20T02:42:54.070Z,7.40
2022-08-20T02:43:24.615Z,8.40
2022-08-20T02:43:55.167Z,8.00
2022-08-20T02:44:25.735Z,8.00
2022-08-20T02:44:56.310Z,7.30
2022-08-20T02:45:26.853Z,7.90
2022-08-20T02:45:57.440Z,7.10
2022-08-20T02:46:27.972Z,8.40
2022-08-20T02:46:58.533Z,8.50
2022-08-20T02:47:29.096Z,7.70
2022-08-20T02:47:59.629Z,7.80
2022-08-20T02:48:30.256Z,8.00
2022-08-20T02:49:00.785Z,8.30
2022-08-20T02:49:31.355Z,8.00
2022-08-20T02:50:01.934Z,7.60
2022-08-20T02:50:32.714Z,7.60
2022-08-20T02:51:03.288Z,8.30
2022-08-20T02:51:33.808Z,8.00
2022-08-20T02:52:04.370Z,7.70
2022-08-20T02:52:34.954Z,7.90
2022-08-20T02:53:05.489Z,7.80
2022-08-20T02:53:36.052Z,7.50
2022-08-20T02:54:06.582Z,8.10
2022-08-20T02:54:37.139Z,8.20
2022-08-20T02:55:07.701Z,8.20
2022-08-20T02:55:38.420Z,7.30
2022-08-20T02:56:08.989Z,7.20
2022-08-20T02:56:39.517Z,7.10
2022-08-20T02:57:10.102Z,7.90
2022-08-20T02:57:40.646Z,8.30
2022-08-20T02:58:11.192Z,7.40
2022-08-20T02:58:41.799Z,8.00
2022-08-20T02:59:12.511Z,7.30
2022-08-20T02:59:43.160Z,8.20
2022-08-20T03:00:13.715Z,7.50
2022-08-20T03:00:44.254Z,8.00
2022-08-20T03:01:14.823Z,7.90
2022-08-20T03:01:45.397Z,8.00
2022-08-20T03:02:15.941Z,7.10
2022-08-20T03:02:46.502Z,7.30
2022-08-20T03:03:17.055Z,7.50
2022-08-20T03:03:47.613Z,7.60
2022-08-20T03:04:18.185Z,7.80
2022-08-20T03:04:48.712Z,7.80
2022-08-20T03:05:19.288Z,8.00
2022-08-20T03:05:49.845Z,7.60
2022-08-20T03:06:20.422Z,7.60
2022-08-20T03:06:50.992Z,8.00
2022-08-20T03:07:21.874Z,7.40
2022-08-20T03:07:52.472Z,8.00
2022-08-20T03:08:23.010Z,7.30
2022-08-20T03:08:53.565Z,7.10
2022-08-20T03:09:24.101Z,7.70
2022-08-20T03:09:54.673Z,7.90
2022-08-20T03:10:25.223Z,7.80
2022-08-20T03:10:55.803Z,7.40
2022-08-20T03:11:26.375Z,8.00
2022-08-20T03:11:56.959Z,7.30
2022-08-20T03:12:27.514Z,7.30
2022-08-20T03:12:58.062Z,8.00
2022-08-20T03:13:28.599Z,7.80
2022-08-20T03:13:59.166Z,7.40
2022-08-20T03:14:29.692Z,7.00
2022-08-20T03:15:00.241Z,7.30
2022-08-20T03:15:30.785Z,7.70
2022-08-20T03:16:01.374Z,7.20
2022-08-20T03:16:31.931Z,7.60
2022-08-20T03:17:02.464Z,7.90
2022-08-20T03:17:33.024Z,7.60
2022-08-20T03:18:03.594Z,7.60
2022-08-20T03:18:34.143Z,7.70
2022-08-20T03:19:04.704Z,7.40
2022-08-20T03:19:35.295Z,7.50
2022-08-20T03:20:05.862Z,7.90
2022-08-20T03:20:36.406Z,6.80
2022-08-20T03:21:07.287Z,7.00
2022-08-20T03:21:37.846Z,7.70
2022-08-20T03:22:08.416Z,7.70
2022-08-20T03:22:38.987Z,7.10
2022-08-20T03:23:09.511Z,6.80
2022-08-20T03:23:40.422Z,7.20
2022-08-20T03:24:11.069Z,7.20
2022-08-20T03:24:41.669Z,7.90
2022-08-20T03:25:12.225Z,7.20
2022-08-20T03:25:42.792Z,7.50
2022-08-20T03:26:13.349Z,7.30
2022-08-20T03:26:43.887Z,7.70
2022-08-20T03:27:14.425Z,6.90
2022-08-20T03:27:44.959Z,6.80
2022-08-20T03:28:15.793Z,7.20
2022-08-20T03:28:46.356Z,7.80
2022-08-20T03:29:17.261Z,7.00
2022-08-20T03:29:47.826Z,7.30
2022-08-20T03:30:18.415Z,7.80
2022-08-20T03:30:48.970Z,7.20
2022-08-20T03:31:19.549Z,7.20
2022-08-20T03:31:50.112Z,7.40
2022-08-20T03:32:20.676Z,7.50
2022-08-20T03:32:51.264Z,7.20
2022-08-20T03:33:21.812Z,7.60
2022-08-20T03:33:53.333Z,7.70
2022-08-20T03:34:23.256Z,7.50
2022-08-20T03:34:53.824Z,7.10
2022-08-20T03:35:24.423Z,7.10
2022-08-20T03:35:55.043Z,7.40
2022-08-20T03:36:28.710Z,8.00
2022-08-20T03:36:56.451Z,6.50
2022-08-20T03:37:27.022Z,7.70
2022-08-20T03:37:57.783Z,7.20
2022-08-20T03:38:33.234Z,7.00
2022-08-20T03:38:59.182Z,7.40
2022-08-20T03:39:29.708Z,7.30
2022-08-20T03:40:00.437Z,7.50
2022-08-20T03:40:31.085Z,7.50
2022-08-20T03:41:01.624Z,7.60
2022-08-20T03:41:32.191Z,7.50
2022-08-20T03:42:02.732Z,6.90
2022-08-20T03:42:33.283Z,7.20
2022-08-20T03:43:03.809Z,6.90
2022-08-20T03:43:34.357Z,7.60
2022-08-20T03:44:04.885Z,7.20
2022-08-20T03:44:35.426Z,6.80
2022-08-20T03:45:06.025Z,7.00
2022-08-20T03:45:36.628Z,6.80
2022-08-20T03:46:07.183Z,7.10
2022-08-20T03:46:37.973Z,7.10
2022-08-20T03:47:08.538Z,6.70
2022-08-20T03:47:39.101Z,6.50
2022-08-20T03:48:09.663Z,7.20
2022-08-20T03:48:40.190Z,6.70
2022-08-20T03:49:10.750Z,7.40
2022-08-20T03:49:41.315Z,7.00
2022-08-20T03:50:14.769Z,6.90
2022-08-20T03:50:42.647Z,7.00
2022-08-20T03:51:13.216Z,6.90
2022-08-20T03:51:57.466Z,6.90
2022-08-20T03:52:14.553Z,6.80
2022-08-20T03:52:45.141Z,7.60
2022-08-20T03:53:15.678Z,6.60
2022-08-20T03:53:46.229Z,7.10
2022-08-20T03:54:16.805Z,7.10
2022-08-20T03:54:47.358Z,6.80
2022-08-20T03:55:17.926Z,7.20
2022-08-20T03:55:53.844Z,7.00
2022-08-20T03:56:19.268Z,6.90
2022-08-20T03:56:49.794Z,6.70
2022-08-20T03:57:20.379Z,7.60
2022-08-20T03:57:50.936Z,6.40
2022-08-20T03:58:21.464Z,7.10
2022-08-20T03:58:52.233Z,6.90
2022-08-20T03:59:22.827Z,7.30
2022-08-20T03:59:58.162Z,7.70
2022-08-20T04:00:24.096Z,6.70
2022-08-20T04:00:55.141Z,7.20
2022-08-20T04:01:45.285Z,7.40
2022-08-20T04:01:56.450Z,7.40
2022-08-20T04:02:26.944Z,6.50
2022-08-20T04:02:57.949Z,6.70
2022-08-20T04:03:28.936Z,6.80
2022-08-20T04:03:59.997Z,6.70
2022-08-20T04:04:30.583Z,6.80
2022-08-20T04:05:01.111Z,6.30
2022-08-20T04:05:32.117Z,6.70
2022-08-20T04:06:03.147Z,6.50
2022-08-20T04:06:34.160Z,7.00
2022-08-20T04:07:05.160Z,6.40
2022-08-20T04:07:36.178Z,7.00
2022-08-20T04:08:07.216Z,7.00
2022-08-20T04:08:37.733Z,6.30
2022-08-20T04:09:09.748Z,6.70
2022-08-20T04:09:39.350Z,6.40
2022-08-20T04:10:10.407Z,6.90
2022-08-20T04:10:40.910Z,6.50
2022-08-20T04:11:11.926Z,7.00
2022-08-20T04:11:42.446Z,6.50
2022-08-20T04:12:13.479Z,6.60
2022-08-20T04:12:53.050Z,7.30
2022-08-20T04:13:15.248Z,6.90
2022-08-20T04:13:46.218Z,6.80
2022-08-20T04:14:18.601Z,6.90
2022-08-20T04:14:47.946Z,6.80
2022-08-20T04:15:18.964Z,6.70
2022-08-20T04:15:49.976Z,7.10
2022-08-20T04:16:20.793Z,7.40
2022-08-20T04:16:51.830Z,6.50
2022-08-20T04:17:22.854Z,6.70
2022-08-20T04:17:53.888Z,6.80
2022-08-20T04:18:24.455Z,6.70
2022-08-20T04:18:58.594Z,6.50
2022-08-20T04:19:25.695Z,7.10
2022-08-20T04:19:56.217Z,6.30
2022-08-20T04:20:27.210Z,6.20
2022-08-20T04:20:58.208Z,6.40
2022-08-20T04:21:30.946Z,7.40
2022-08-20T04:22:00.062Z,6.70
2022-08-20T04:22:30.592Z,6.80
2022-08-20T04:23:01.610Z,7.10
2022-08-20T04:23:32.670Z,6.80
2022-08-20T04:24:03.157Z,6.40
2022-08-20T04:24:34.185Z,7.20
2022-08-20T04:25:05.212Z,6.40
2022-08-20T04:25:36.333Z,7.00
2022-08-20T04:26:06.944Z,6.70
2022-08-20T04:26:37.418Z,6.30
2022-08-20T04:27:07.936Z,6.50
2022-08-20T04:27:38.976Z,6.50
2022-08-20T04:28:09.979Z,6.50
2022-08-20T04:28:41.001Z,5.90
2022-08-20T04:29:12.011Z,5.80
2022-08-20T04:29:43.085Z,6.50
2022-08-20T04:30:13.598Z,6.70
2022-08-20T04:30:51.714Z,6.60
2022-08-20T04:31:15.365Z,6.60
2022-08-20T04:31:46.369Z,6.40
2022-08-20T04:32:17.378Z,5.80
2022-08-20T04:32:47.928Z,6.50
2022-08-20T04:33:19.211Z,6.60
2022-08-20T04:33:49.682Z,6.10
2022-08-20T04:34:20.226Z,6.40
2022-08-20T04:34:50.751Z,6.00
2022-08-20T04:35:21.276Z,6.40
2022-08-20T04:35:52.309Z,5.70
2022-08-20T04:36:23.302Z,6.50
2022-08-20T04:36:54.347Z,6.40
2022-08-20T04:37:24.865Z,6.20
2022-08-20T04:37:56.115Z,6.10
2022-08-20T04:38:26.681Z,6.00
2022-08-20T04:38:57.411Z,6.90
2022-08-20T04:39:28.410Z,6.10
2022-08-20T04:39:59.470Z,6.30
2022-08-20T04:40:29.978Z,6.40
2022-08-20T04:41:00.507Z,6.20
2022-08-20T04:41:31.530Z,6.70
2022-08-20T04:42:02.550Z,6.00
2022-08-20T04:42:33.063Z,5.90
2022-08-20T04:43:03.666Z,6.70
2022-08-20T04:43:34.701Z,6.60
2022-08-20T04:44:05.716Z,6.30
2022-08-20T04:44:36.261Z,6.30
2022-08-20T04:45:07.274Z,5.80
2022-08-20T04:45:38.298Z,6.50
2022-08-20T04:46:08.807Z,6.00
2022-08-20T04:46:39.818Z,6.30
2022-08-20T04:47:10.847Z,6.40
2022-08-20T04:47:41.651Z,6.10
2022-08-20T04:48:15.125Z,6.00
2022-08-20T04:48:48.750Z,6.40
2022-08-20T04:49:14.026Z,6.40
2022-08-20T04:49:44.551Z,6.10
2022-08-20T04:50:15.575Z,5.80
2022-08-20T04:50:46.099Z,6.30
2022-08-20T04:51:16.617Z,6.50
2022-08-20T04:51:47.652Z,6.00
2022-08-20T04:52:18.683Z,6.10
2022-08-20T04:52:49.204Z,6.20
2022-08-20T04:53:25.257Z,6.10
2022-08-20T04:53:53.259Z,6.00
2022-08-20T04:54:21.722Z,6.00
2022-08-20T04:54:52.239Z,5.90
2022-08-20T04:55:23.233Z,6.00
2022-08-20T04:55:54.268Z,5.70
2022-08-20T04:56:25.295Z,5.40
2022-08-20T04:56:55.814Z,6.20
2022-08-20T04:57:26.809Z,6.20
2022-08-20T04:57:57.793Z,5.60
2022-08-20T04:58:28.355Z,6.40
2022-08-20T04:58:58.880Z,5.80
2022-08-20T04:59:29.916Z,6.20
2022-08-20T05:00:00.937Z,6.10
2022-08-20T05:00:32.002Z,5.40
2022-08-20T05:01:02.570Z,6.00
2022-08-20T05:01:33.264Z,6.20
2022-08-20T05:02:03.801Z,6.00
2022-08-20T05:02:34.796Z,5.40
2022-08-20T05:03:05.794Z,5.40
2022-08-20T05:03:36.787Z,6.20
2022-08-20T05:04:07.831Z,6.30
2022-08-20T05:04:38.350Z,5.90
2022-08-20T05:05:09.382Z,5.90
2022-08-20T05:05:40.398Z,6.00
2022-08-20T05:06:10.934Z,6.00
2022-08-20T05:06:41.435Z,6.40
2022-08-20T05:07:12.453Z,5.70
2022-08-20T05:07:42.983Z,6.00
2022-08-20T05:08:19.593Z,5.60
2022-08-20T05:08:44.732Z,6.20
2022-08-20T05:09:15.743Z,6.30
2022-08-20T05:09:46.790Z,6.00
2022-08-20T05:10:17.814Z,5.20
2022-08-20T05:10:48.835Z,6.00
2022-08-20T05:11:35.306Z,5.90
2022-08-20T05:11:50.074Z,6.20
2022-08-20T05:12:21.085Z,6.00
2022-08-20T05:12:53.778Z,5.70
2022-08-20T05:13:27.141Z,6.00
2022-08-20T05:13:53.796Z,6.10
2022-08-20T05:14:24.331Z,5.50
2022-08-20T05:14:54.841Z,6.20
2022-08-20T05:15:25.357Z,5.30
2022-08-20T05:15:56.385Z,5.50
2022-08-20T05:16:27.392Z,5.90
2022-08-20T05:16:58.436Z,5.70
2022-08-20T05:17:28.955Z,5.20
2022-08-20T05:17:59.999Z,5.30
2022-08-20T05:18:31.057Z,5.40
2022-08-20T05:19:01.546Z,5.50
2022-08-20T05:19:37.019Z,5.40
2022-08-20T05:20:03.281Z,5.70
2022-08-20T05:20:33.845Z,5.50
2022-08-20T05:21:04.358Z,5.20
2022-08-20T05:21:35.390Z,5.50
2022-08-20T05:22:06.402Z,5.80
2022-08-20T05:22:36.907Z,5.60
2022-08-20T05:23:07.900Z,5.40
2022-08-20T05:23:38.918Z,5.50
2022-08-20T05:24:09.941Z,5.70
2022-08-20T05:24:40.457Z,5.00
2022-08-20T05:25:11.480Z,5.40
2022-08-20T05:25:41.993Z,5.60
2022-08-20T05:26:12.995Z,5.80
2022-08-20T05:26:44.011Z,5.50
2022-08-20T05:27:24.559Z,5.70
2022-08-20T05:27:47.831Z,5.10
2022-08-20T05:28:16.314Z,5.50
2022-08-20T05:28:54.104Z,5.40
2022-08-20T05:29:18.065Z,5.60
2022-08-20T05:29:48.591Z,5.40
2022-08-20T05:30:19.621Z,4.90
2022-08-20T05:30:50.142Z,5.60
2022-08-20T05:31:21.196Z,5.40
2022-08-20T05:31:52.198Z,5.10
2022-08-20T05:32:23.221Z,5.60
2022-08-20T05:32:54.263Z,5.50
2022-08-20T05:33:24.784Z,5.70
2022-08-20T05:33:55.289Z,5.10
2022-08-20T05:34:26.319Z,5.20
2022-08-20T05:34:57.376Z,5.40
2022-08-20T05:35:28.383Z,4.70
2022-08-20T05:35:59.414Z,5.80
2022-08-20T05:36:30.430Z,5.60
2022-08-20T05:37:00.950Z,4.80
2022-08-20T05:37:31.468Z,5.20
2022-08-20T05:38:02.340Z,5.50
2022-08-20T05:38:33.344Z,5.30
2022-08-20T05:39:03.864Z,5.10
2022-08-20T05:39:37.486Z,5.00
2022-08-20T05:40:05.622Z,5.00
2022-08-20T05:40:36.124Z,5.30
2022-08-20T05:41:07.130Z,5.00
2022-08-20T05:41:38.173Z,4.90
2022-08-20T05:42:08.714Z,4.70
2022-08-20T05:42:39.220Z,5.30
2022-08-20T05:43:10.247Z,4.70
2022-08-20T05:43:41.256Z,5.20
2022-08-20T05:44:11.787Z,5.10
2022-08-20T05:44:42.789Z,5.10
2022-08-20T05:45:13.308Z,4.80
2022-08-20T05:45:43.821Z,5.00
2022-08-20T05:46:14.829Z,4.70
2022-08-20T05:46:45.354Z,4.90
2022-08-20T05:47:16.352Z,4.80
2022-08-20T05:47:47.347Z,5.50
2022-08-20T05:48:18.094Z,5.30
2022-08-20T05:48:49.094Z,4.70
2022-08-20T05:49:20.169Z,5.00
2022-08-20T05:49:50.670Z,5.30
2022-08-20T05:50:23.518Z,5.10
2022-08-20T05:50:52.546Z,5.30
2022-08-20T05:51:23.068Z,5.60
2022-08-20T05:51:54.100Z,5.00
2022-08-20T05:52:25.126Z,5.20
2022-08-20T05:52:56.142Z,4.70
2022-08-20T05:53:27.145Z,5.00
2022-08-20T05:53:59.599Z,5.20
2022-08-20T05:54:28.197Z,5.20
2022-08-20T05:54:59.223Z,4.70
2022-08-20T05:55:30.251Z,5.50
2022-08-20T05:56:01.276Z,5.50
2022-08-20T05:56:32.296Z,4.80
2022-08-20T05:57:03.347Z,5.30
2022-08-20T05:57:34.364Z,5.30
2022-08-20T05:58:04.902Z,5.00
2022-08-20T05:58:35.426Z,5.00
2022-08-20T05:59:06.450Z,4.90
2022-08-20T05:59:36.966Z,5.30
2022-08-20T06:00:07.971Z,4.90
2022-08-20T06:00:38.494Z,5.50
2022-08-20T06:01:09.568Z,5.30
2022-08-20T06:01:40.173Z,5.30
2022-08-20T06:02:10.688Z,5.00
2022-08-20T06:02:41.685Z,5.50
2022-08-20T06:03:12.678Z,5.10
2022-08-20T06:03:43.702Z,5.40
2022-08-20T06:04:14.757Z,4.70
2022-08-20T06:04:45.251Z,5.20
2022-08-20T06:05:16.266Z,4.80
2022-08-20T06:05:46.773Z,5.10
2022-08-20T06:06:20.694Z,5.20
2022-08-20T06:06:48.488Z,5.20
2022-08-20T06:07:19.495Z,5.40
2022-08-20T06:07:50.023Z,5.10
2022-08-20T06:08:20.560Z,5.20
2022-08-20T06:08:51.567Z,5.30
2022-08-20T06:09:30.607Z,5.10
2022-08-20T06:09:53.319Z,4.60
2022-08-20T06:10:24.379Z,4.90
2022-08-20T06:10:54.893Z,5.20
2022-08-20T06:11:25.419Z,5.10
2022-08-20T06:11:59.157Z,4.60
2022-08-20T06:12:27.316Z,4.90
2022-08-20T06:12:57.842Z,4.80
2022-08-20T06:13:28.876Z,5.20
2022-08-20T06:13:59.900Z,4.70
2022-08-20T06:14:30.901Z,5.60
2022-08-20T06:15:01.420Z,4.70
2022-08-20T06:15:32.435Z,5.30
2022-08-20T06:16:03.185Z,4.60
2022-08-20T06:16:34.236Z,5.00
2022-08-20T06:17:05.320Z,5.20
2022-08-20T06:17:39.457Z,5.10
2022-08-20T06:18:13.005Z,4.50
2022-08-20T06:18:37.263Z,4.80
2022-08-20T06:19:10.309Z,4.90
2022-08-20T06:19:38.804Z,5.00
2022-08-20T06:20:09.828Z,4.80
2022-08-20T06:20:40.519Z,5.20
2022-08-20T06:21:11.022Z,4.90
2022-08-20T06:21:41.612Z,5.30
2022-08-20T06:22:20.635Z,5.20
2022-08-20T06:22:42.882Z,5.30
2022-08-20T06:23:13.457Z,5.20
2022-08-20T06:23:57.509Z,4.90
2022-08-20T06:24:15.218Z,5.00
2022-08-20T06:24:46.226Z,5.00
2022-08-20T06:25:16.748Z,5.00
2022-08-20T06:25:47.274Z,5.10
2022-08-20T06:26:29.913Z,4.80
2022-08-20T06:26:49.017Z,5.30
2022-08-20T06:27:19.549Z,5.40
2022-08-20T06:27:50.131Z,4.90
2022-08-20T06:28:20.689Z,4.60
2022-08-20T06:28:54.167Z,4.90
2022-08-20T06:29:22.658Z,5.20
2022-08-20T06:29:53.709Z,4.80
2022-08-20T06:30:24.215Z,4.90
2022-08-20T06:30:55.250Z,5.00
2022-08-20T06:31:26.283Z,5.20
2022-08-20T06:31:57.312Z,4.90
2022-08-20T06:32:32.679Z,5.50
2022-08-20T06:32:59.229Z,5.00
2022-08-20T06:33:29.742Z,4.80
2022-08-20T06:34:00.774Z,4.40
2022-08-20T06:34:31.294Z,5.10
2022-08-20T06:35:01.817Z,4.40
2022-08-20T06:35:32.842Z,4.80
2022-08-20T06:36:03.362Z,5.20
2022-08-20T06:36:34.379Z,4.70
2022-08-20T06:37:05.410Z,5.20
2022-08-20T06:37:35.946Z,5.10
2022-08-20T06:38:06.960Z,4.50
2022-08-20T06:38:38.584Z,5.00
2022-08-20T06:39:08.743Z,4.90
2022-08-20T06:39:39.289Z,4.70
2022-08-20T06:40:10.439Z,5.00
2022-08-20T06:40:41.018Z,4.70
2022-08-20T06:41:12.058Z,4.70
2022-08-20T06:41:43.079Z,4.40
2022-08-20T06:42:13.861Z,4.70
2022-08-20T06:42:48.442Z,4.40
2022-08-20T06:43:15.187Z,5.20
2022-08-20T06:43:45.720Z,4.50
2022-08-20T06:44:16.272Z,4.90
2022-08-20T06:44:46.807Z,4.80
2022-08-20T06:45:17.331Z,4.70
2022-08-20T06:45:48.337Z,4.70
2022-08-20T06:46:18.857Z,5.00
2022-08-20T06:46:49.882Z,4.70
2022-08-20T06:47:20.900Z,4.90
2022-08-20T06:47:51.941Z,5.30
2022-08-20T06:48:22.456Z,4.80
2022-08-20T06:48:52.984Z,5.00